createdAt,value
2023-03-02T00:01:41.277Z,101107.00
2023-03-02T00:06:44.392Z,101101.16
2023-03-02T00:11:48.785Z,101096.41
2023-03-02T00:16:51.633Z,101080.63
2023-03-02T00:21:54.388Z,101084.63
2023-03-02T00:26:59.112Z,101083.28
2023-03-02T00:32:03.751Z,101080.06
2023-03-02T00:37:06.514Z,101083.94
2023-03-02T00:42:10.588Z,101080.22
2023-03-02T00:47:13.597Z,101072.69
2023-03-02T00:52:17.207Z,101079.66
2023-03-02T00:57:21.344Z,101074.53
2023-03-02T01:02:24.427Z,101073.97
2023-03-02T01:07:28.453Z,101060.06
2023-03-02T01:12:33.419Z,101059.94
2023-03-02T01:17:36.153Z,101054.69
2023-03-02T01:22:38.858Z,101055.25
2023-03-02T01:27:42.935Z,101056.06
2023-03-02T01:32:45.756Z,101045.97
2023-03-02T01:37:49.243Z,101040.19
2023-03-02T01:42:58.239Z,101029.97
2023-03-02T01:48:01.045Z,101034.34
2023-03-02T01:53:04.821Z,101028.28
2023-03-02T01:58:09.887Z,101028.28
2023-03-02T02:03:16.215Z,101024.41
2023-03-02T02:08:19.412Z,101021.25
2023-03-02T02:13:23.645Z,101022.44
2023-03-02T02:18:26.708Z,101027.97
2023-03-02T02:23:34.994Z,101029.00
2023-03-02T02:28:43.366Z,101011.00
2023-03-02T02:33:51.820Z,101012.78
2023-03-02T02:38:56.927Z,101016.28
2023-03-02T02:44:01.448Z,101018.31
2023-03-02T02:49:04.802Z,101005.66
2023-03-02T02:54:07.564Z,100997.16
2023-03-02T02:59:17.531Z,100998.59
2023-03-02T03:04:22.486Z,100994.72
2023-03-02T03:09:26.318Z,100994.03
2023-03-02T03:14:32.321Z,101003.00
2023-03-02T03:19:35.097Z,100993.72
2023-03-02T03:24:38.107Z,100998.34
2023-03-02T03:29:44.998Z,100991.00
2023-03-02T03:34:50.002Z,100987.06
2023-03-02T03:39:59.061Z,100975.09
2023-03-02T03:45:03.669Z,100977.22
2023-03-02T03:50:10.579Z,100967.06
2023-03-02T03:55:14.253Z,100967.28
2023-03-02T04:00:21.509Z,100966.41
2023-03-02T04:05:39.665Z,100968.03
2023-03-02T04:10:42.663Z,100969.84
2023-03-02T04:15:47.703Z,100973.22
2023-03-02T04:20:51.174Z,100969.84
2023-03-02T04:25:54.010Z,100978.63
2023-03-02T04:30:59.786Z,100973.44
2023-03-02T04:36:03.165Z,100974.34
2023-03-02T04:41:07.129Z,100970.94
2023-03-02T04:46:16.049Z,100971.97
2023-03-02T04:51:23.945Z,100970.94
2023-03-02T04:56:27.164Z,100972.88
2023-03-02T05:01:31.326Z,100975.47
2023-03-02T05:06:34.653Z,100974.47
2023-03-02T05:11:37.957Z,100970.03
2023-03-02T05:16:43.004Z,100962.16
2023-03-02T05:21:46.096Z,100960.25
2023-03-02T05:26:48.934Z,100972.53
2023-03-02T05:31:53.179Z,100966.50
2023-03-02T05:36:57.072Z,100978.72
2023-03-02T05:41:59.791Z,100971.22
2023-03-02T05:47:03.895Z,100971.28
2023-03-02T05:52:06.861Z,100970.28
2023-03-02T05:57:09.555Z,100972.03
2023-03-02T06:02:13.755Z,100979.81
2023-03-02T06:07:16.503Z,100977.22
2023-03-02T06:12:19.522Z,100978.81
2023-03-02T06:17:23.604Z,100984.84
2023-03-02T06:22:26.824Z,100986.84
2023-03-02T06:27:29.549Z,100993.78
2023-03-02T06:32:34.328Z,100997.97
2023-03-02T06:37:37.284Z,100994.38
2023-03-02T06:42:41.469Z,100987.69
2023-03-02T06:47:45.550Z,100994.44
2023-03-02T06:52:48.310Z,101003.75
2023-03-02T06:57:51.231Z,100996.72
2023-03-02T07:02:56.160Z,100999.16
2023-03-02T07:07:59.031Z,101005.81
2023-03-02T07:13:01.859Z,101007.31
2023-03-02T07:18:05.995Z,100998.09
2023-03-02T07:23:08.784Z,100989.63
2023-03-02T07:28:11.760Z,100996.06
2023-03-02T07:33:16.102Z,100988.94
2023-03-02T07:38:18.890Z,100989.50
2023-03-02T07:43:23.951Z,100994.50
2023-03-02T07:48:28.175Z,100989.81
2023-03-02T07:53:31.079Z,101004.44
2023-03-02T07:58:35.302Z,101005.50
2023-03-02T08:03:39.596Z,101009.31
2023-03-02T08:08:42.381Z,101001.81
2023-03-02T08:13:45.750Z,101002.22
2023-03-02T08:18:49.834Z,101005.53
2023-03-02T08:23:53.043Z,100999.06
2023-03-02T08:28:55.848Z,101000.19
2023-03-02T08:34:00.535Z,101003.97
2023-03-02T08:39:03.402Z,101001.22
2023-03-02T08:44:06.388Z,100995.72
2023-03-02T08:49:10.727Z,100997.13
2023-03-02T08:54:13.988Z,100985.59
2023-03-02T08:59:17.354Z,100983.38
2023-03-02T09:04:21.526Z,100981.13
2023-03-02T09:09:24.393Z,100972.84
2023-03-02T09:14:27.283Z,100957.50
2023-03-02T09:19:31.503Z,100965.47
2023-03-02T09:24:34.389Z,100966.75
2023-03-02T09:29:37.137Z,100964.78
2023-03-02T09:34:41.354Z,100962.16
2023-03-02T09:39:44.226Z,100968.41
2023-03-02T09:45:02.189Z,100962.50
2023-03-02T09:50:22.995Z,100971.06
2023-03-02T09:55:29.200Z,100969.44
2023-03-02T10:00:35.233Z,100974.66
2023-03-02T10:05:40.776Z,100973.81
2023-03-02T10:10:46.403Z,100967.69
2023-03-02T10:15:57.704Z,100964.34
2023-03-02T10:21:05.995Z,100961.97
2023-03-02T10:26:16.994Z,100958.63
2023-03-02T10:31:26.021Z,100951.56
2023-03-02T10:36:31.252Z,100951.34
2023-03-02T10:41:40.901Z,100952.06
2023-03-02T10:46:45.438Z,100938.75
2023-03-02T10:51:56.766Z,100942.53
2023-03-02T10:57:01.382Z,100934.34
2023-03-02T11:02:05.585Z,100926.09
2023-03-02T11:07:12.909Z,100922.38
2023-03-02T11:12:17.351Z,100913.50
2023-03-02T11:17:31.672Z,100896.59
2023-03-02T11:22:39.883Z,100901.97
2023-03-02T11:27:44.279Z,100901.84
2023-03-02T11:32:52.630Z,100898.88
2023-03-02T11:37:58.917Z,100887.81
2023-03-02T11:43:04.764Z,100884.22
2023-03-02T11:48:10.833Z,100872.94
2023-03-02T11:53:15.753Z,100862.09
2023-03-02T11:58:20.207Z,100867.81
2023-03-02T12:03:36.951Z,100859.00
2023-03-02T12:08:42.313Z,100855.25
2023-03-02T12:13:46.178Z,100848.69
2023-03-02T12:18:49.262Z,100838.13
2023-03-02T12:23:59.399Z,100841.22
2023-03-02T12:29:05.584Z,100828.91
2023-03-02T12:34:26.970Z,100821.63
2023-03-02T12:39:41.993Z,100821.97
2023-03-02T12:44:52.408Z,100804.63
2023-03-02T12:49:57.923Z,100800.34
2023-03-02T12:55:05.038Z,100799.28
2023-03-02T13:00:17.827Z,100789.66
2023-03-02T13:05:22.500Z,100779.84
2023-03-02T13:10:30.779Z,100772.38
2023-03-02T13:15:33.737Z,100772.16
2023-03-02T13:20:36.563Z,100767.78
2023-03-02T13:25:49.176Z,100761.34
2023-03-02T13:30:57.802Z,100749.03
2023-03-02T13:36:00.747Z,100760.34
2023-03-02T13:41:05.523Z,100751.88
2023-03-02T13:46:26.957Z,100744.72
2023-03-02T13:51:32.274Z,100735.06
2023-03-02T13:56:38.314Z,100737.88
2023-03-02T14:01:42.041Z,100716.41
2023-03-02T14:06:45.153Z,100709.84
2023-03-02T14:11:53.066Z,100716.81
2023-03-02T14:16:55.927Z,100714.06
2023-03-02T14:21:58.654Z,100722.19
2023-03-02T14:27:02.772Z,100709.66
2023-03-02T14:32:06.674Z,100698.88
2023-03-02T14:37:12.596Z,100696.47
2023-03-02T14:42:18.348Z,100694.00
2023-03-02T14:47:21.803Z,100684.16
2023-03-02T14:52:29.050Z,100679.13
2023-03-02T14:57:37.057Z,100674.88
2023-03-02T15:02:39.970Z,100668.00
2023-03-02T15:07:42.977Z,100668.69
2023-03-02T15:12:47.305Z,100667.81
2023-03-02T15:17:50.015Z,100662.06
2023-03-02T15:22:53.521Z,100667.66
2023-03-02T15:27:58.276Z,100667.00
2023-03-02T15:33:01.005Z,100665.19
2023-03-02T15:38:04.557Z,100669.19
2023-03-02T15:43:08.808Z,100669.16
2023-03-02T15:48:13.515Z,100671.50
2023-03-02T15:55:46.401Z,100670.09
2023-03-02T16:00:49.474Z,100668.38
2023-03-02T16:05:52.374Z,100669.63
2023-03-02T16:11:00.930Z,100666.56
2023-03-02T16:16:05.038Z,100672.09
2023-03-02T16:21:13.027Z,100670.09
2023-03-02T16:26:19.338Z,100673.34
2023-03-02T16:31:23.500Z,100677.34
2023-03-02T16:36:26.725Z,100672.16
2023-03-02T16:41:30.829Z,100673.19
2023-03-02T16:46:36.746Z,100666.50
2023-03-02T16:51:40.131Z,100678.56
2023-03-02T16:56:47.165Z,100680.38
2023-03-02T17:01:50.006Z,100686.34
2023-03-02T17:07:01.151Z,100697.06
2023-03-02T17:12:05.918Z,100704.28
2023-03-02T17:17:08.782Z,100700.25
2023-03-02T17:22:11.543Z,100700.66
2023-03-02T17:27:24.601Z,100709.44
2023-03-02T17:32:28.609Z,100713.00
2023-03-02T17:37:31.327Z,100710.34
2023-03-02T17:42:35.484Z,100716.66
2023-03-02T17:47:38.259Z,100724.91
2023-03-02T17:52:41.026Z,100725.81
2023-03-02T17:57:45.190Z,100733.75
2023-03-02T18:02:47.940Z,100743.59
2023-03-02T18:07:52.426Z,100752.72
2023-03-02T18:12:56.773Z,100755.28
2023-03-02T18:17:59.531Z,100760.31
2023-03-02T18:23:02.740Z,100756.66
2023-03-02T18:28:06.947Z,100767.97
2023-03-02T18:33:09.744Z,100776.22
2023-03-02T18:38:12.481Z,100776.00
2023-03-02T18:43:16.641Z,100791.94
2023-03-02T18:48:19.795Z,100794.38
2023-03-02T18:53:22.630Z,100794.13
2023-03-02T18:58:26.912Z,100795.00
2023-03-02T19:03:31.123Z,100798.94
2023-03-02T19:08:35.346Z,100801.91
2023-03-02T19:13:39.661Z,100799.75
2023-03-02T19:18:42.697Z,100809.28
2023-03-02T19:23:46.543Z,100816.50
2023-03-02T19:28:50.929Z,100809.59
2023-03-02T19:33:53.691Z,100820.19
2023-03-02T19:38:56.381Z,100815.31
2023-03-02T19:44:00.556Z,100819.31
2023-03-02T19:49:03.301Z,100820.28
2023-03-02T19:54:06.108Z,100833.09
2023-03-02T19:59:11.103Z,100834.47
2023-03-02T20:04:13.760Z,100836.72
2023-03-02T20:09:19.692Z,100849.41
2023-03-02T20:14:33.328Z,100846.94
2023-03-02T20:19:37.367Z,100840.84
2023-03-02T20:24:40.649Z,100848.09
2023-03-02T20:29:45.532Z,100843.47
2023-03-02T20:34:49.375Z,100844.31
2023-03-02T20:39:53.233Z,100839.41
2023-03-02T20:44:59.383Z,100843.16
2023-03-02T20:50:02.684Z,100849.78
2023-03-02T20:55:09.598Z,100842.72
2023-03-02T21:00:20.587Z,100855.25
2023-03-02T21:05:23.732Z,100853.72
2023-03-02T21:10:30.088Z,100857.59
2023-03-02T21:15:34.628Z,100854.91
2023-03-02T21:20:37.552Z,100856.19
2023-03-02T21:25:42.293Z,100848.47
2023-03-02T21:30:47.016Z,100844.75
2023-03-02T21:35:49.796Z,100847.78
2023-03-02T21:40:52.741Z,100861.94
2023-03-02T21:45:56.828Z,100863.13
2023-03-02T21:50:59.924Z,100862.00
2023-03-02T21:56:02.648Z,100859.91
2023-03-02T22:01:06.774Z,100866.28
2023-03-02T22:06:10.706Z,100862.72
2023-03-02T22:11:18.249Z,100864.28
2023-03-02T22:16:23.906Z,100861.66
2023-03-02T22:21:31.952Z,100866.28
2023-03-02T22:26:42.344Z,100867.22
2023-03-02T22:31:48.983Z,100855.97
2023-03-02T22:36:52.109Z,100864.28
2023-03-02T22:42:00.278Z,100850.75
2023-03-02T22:47:07.491Z,100856.06
2023-03-02T22:52:13.881Z,100850.22
2023-03-02T22:57:28.981Z,100855.97
2023-03-02T23:02:43.716Z,100864.59
2023-03-02T23:07:46.392Z,100869.69
2023-03-02T23:12:49.152Z,100870.56
2023-03-02T23:17:53.212Z,100870.66
2023-03-02T23:22:57.929Z,100879.13
2023-03-02T23:28:00.650Z,100869.53
2023-03-02T23:33:04.937Z,100863.16
2023-03-02T23:38:07.675Z,100861.19
2023-03-02T23:43:10.535Z,100863.28
2023-03-02T23:48:14.631Z,100859.94
2023-03-02T23:53:17.518Z,100860.75
2023-03-02T23:58:20.446Z,100862.00
